Time,TemperatureF,DewpointF,PressureIn,WindDirection,WindDirectionDegrees,WindSpeedMPH,WindSpeedGustMPH,Humidity,HourlyPrecipIn,Conditions,Clouds,dailyrainin,SolarRadiationWatts/m^2,SoftwareType,DateUTC
2013-07-13 00:00:00,55.7,43.7,30.15,North,358,1.0,18.0,64,0.00,,,0.00,0,Wunderground v.1.15,2013-07-13 07:00:00,
2013-07-13 00:10:00,55.1,43.9,30.15,North,11,3.0,15.0,66,0.00,,,0.00,0,Wunderground v.1.15,2013-07-13 07:10:00,
2013-07-13 00:20:00,54.6,43.9,30.16,North,7,6.0,15.0,67,0.00,,,0.00,0,Wunderground v.1.15,2013-07-13 07:20:00,
2013-07-13 00:30:00,54.6,43.9,30.15,NNW,330,3.0,15.0,67,0.00,,,0.00,0,Wunderground v.1.15,2013-07-13 07:30:00,
2013-07-13 00:41:00,54.1,43.8,30.16,NNW,330,2.0,7.0,68,0.00,,,0.00,0,Wunderground v.1.15,2013-07-13 07:41:00,
2013-07-13 00:50:00,53.7,43.4,30.17,NNW,330,0.0,7.0,68,0.00,,,0.00,0,Wunderground v.1.15,2013-07-13 07:50:00,
2013-07-13 01:00:00,51.8,42.7,30.17,NNW,330,0.0,7.0,71,0.00,,,0.00,0,Wunderground v.1.15,2013-07-13 08:00:00,
2013-07-13 01:05:00,50.9,42.2,30.17,NW,309,2.0,7.0,72,0.00,,,0.00,0,Wunderground v.1.15,2013-07-13 08:05:00,
2013-07-13 01:10:00,50.2,41.9,30.17,NW,309,1.0,4.0,73,0.00,,,0.00,0,Wunderground v.1.15,2013-07-13 08:10:00,
2013-07-13 01:20:00,49.5,41.9,30.17,South,182,3.0,4.0,75,0.00,,,0.00,0,Wunderground v.1.15,2013-07-13 08:20:00,
2013-07-13 01:30:00,48.3,41.1,30.17,South,182,0.0,4.0,76,0.00,,,0.00,0,Wunderground v.1.15,2013-07-13 08:30:00,
2013-07-13 01:40:00,47.7,41.2,30.17,South,182,0.0,4.0,78,0.00,,,0.00,0,Wunderground v.1.15,2013-07-13 08:40:00,
2013-07-13 01:50:00,47.0,40.5,30.18,South,182,0.0,4.0,78,0.00,,,0.00,0,Wunderground v.1.15,2013-07-13 08:50:00,
2013-07-13 02:00:00,46.6,40.1,30.18,South,180,0.0,4.0,78,0.00,,,0.00,0,Wunderground v.1.15,2013-07-13 09:00:00,
2013-07-13 02:05:00,46.6,40.1,30.17,South,181,3.0,4.0,78,0.00,,,0.00,0,Wunderground v.1.15,2013-07-13 09:05:00,
2013-07-13 02:15:00,45.9,39.4,30.18,South,182,0.0,4.0,78,0.00,,,0.00,0,Wunderground v.1.15,2013-07-13 09:15:00,
2013-07-13 02:20:00,45.5,39.0,30.18,South,182,0.0,4.0,78,0.00,,,0.00,0,Wunderground v.1.15,2013-07-13 09:20:00,
2013-07-13 02:30:00,45.2,39.4,30.18,South,182,0.0,4.0,80,0.00,,,0.00,0,Wunderground v.1.15,2013-07-13 09:30:00,
2013-07-13 02:40:00,43.9,38.1,30.18,South,182,0.0,4.0,80,0.00,,,0.00,0,Wunderground v.1.15,2013-07-13 09:40:00,
2013-07-13 02:50:00,43.2,38.4,30.18,South,182,0.0,4.0,83,0.00,,,0.00,0,Wunderground v.1.15,2013-07-13 09:50:00,
2013-07-13 03:00:00,42.3,37.8,30.18,South,182,2.0,4.0,84,0.00,,,0.00,0,Wunderground v.1.15,2013-07-13 10:00:00,
2013-07-13 03:10:00,41.9,37.7,30.18,South,182,0.0,3.0,85,0.00,,,0.00,0,Wunderground v.1.15,2013-07-13 10:10:00,
2013-07-13 03:20:00,41.5,37.3,30.18,South,182,0.0,3.0,85,0.00,,,0.00,0,Wunderground v.1.15,2013-07-13 10:20:00,
2013-07-13 03:30:00,40.8,36.6,30.18,South,182,0.0,3.0,85,0.00,,,0.00,0,Wunderground v.1.15,2013-07-13 10:30:00,
2013-07-13 03:40:00,40.3,36.4,30.18,South,182,2.0,3.0,86,0.00,,,0.00,0,Wunderground v.1.15,2013-07-13 10:40:00,
2013-07-13 03:50:00,39.5,36.0,30.18,South,182,0.0,3.0,87,0.00,,,0.00,0,Wunderground v.1.15,2013-07-13 10:50:00,
2013-07-13 04:00:00,39.5,36.2,30.18,South,182,2.0,3.0,88,0.00,,,0.00,0,Wunderground v.1.15,2013-07-13 11:00:00,
2013-07-13 04:05:00,39.5,36.2,30.18,South,182,0.0,3.0,88,0.00,,,0.00,0,Wunderground v.1.15,2013-07-13 11:05:00,
2013-07-13 04:10:00,39.0,35.5,30.18,South,181,0.0,3.0,87,0.00,,,0.00,0,Wunderground v.1.15,2013-07-13 11:10:00,
2013-07-13 04:20:00,39.0,35.7,30.18,South,181,0.0,3.0,88,0.00,,,0.00,0,Wunderground v.1.15,2013-07-13 11:20:00,
2013-07-13 04:30:00,37.8,34.8,30.18,South,182,2.0,3.0,89,0.00,,,0.00,0,Wunderground v.1.15,2013-07-13 11:30:00,
2013-07-13 04:40:00,37.4,34.7,30.19,South,182,0.0,3.0,90,0.00,,,0.00,0,Wunderground v.1.15,2013-07-13 11:40:00,
2013-07-13 04:50:00,37.3,34.6,30.18,South,182,0.0,3.0,90,0.00,,,0.00,0,Wunderground v.1.15,2013-07-13 11:50:00,
2013-07-13 05:00:00,37.4,34.7,30.18,South,182,0.0,3.0,90,0.00,,,0.00,0,Wunderground v.1.15,2013-07-13 12:00:00,
2013-07-13 05:10:00,36.9,34.2,30.19,South,181,0.0,2.0,90,0.00,,,0.00,0,Wunderground v.1.15,2013-07-13 12:10:00,
2013-07-13 05:20:00,36.2,33.8,30.19,South,182,0.0,2.0,91,0.00,,,0.00,0,Wunderground v.1.15,2013-07-13 12:20:00,
2013-07-13 05:30:00,35.7,33.6,30.19,South,182,1.0,2.0,92,0.00,,,0.00,0,Wunderground v.1.15,2013-07-13 12:30:00,
2013-07-13 05:40:00,35.5,33.4,30.19,South,182,3.0,3.0,92,0.00,,,0.00,0,Wunderground v.1.15,2013-07-13 12:40:00,
2013-07-13 05:50:00,35.4,33.3,30.19,South,182,0.0,3.0,92,0.00,,,0.00,0,Wunderground v.1.15,2013-07-13 12:50:00,
2013-07-13 06:00:00,36.3,33.6,30.19,South,182,0.0,3.0,90,0.00,,,0.00,0,Wunderground v.1.15,2013-07-13 13:00:00,
2013-07-13 06:10:00,37.2,34.3,30.20,South,181,0.0,3.0,89,0.00,,,0.00,0,Wunderground v.1.15,2013-07-13 13:10:00,
2013-07-13 06:20:00,38.4,34.6,30.20,South,181,0.0,3.0,86,0.00,,,0.00,0,Wunderground v.1.15,2013-07-13 13:20:00,
2013-07-13 06:30:00,39.3,35.5,30.20,South,181,0.0,3.0,86,0.00,,,0.00,0,Wunderground v.1.15,2013-07-13 13:30:00,
2013-07-13 06:40:00,40.9,36.4,30.20,South,181,0.0,0.0,84,0.00,,,0.00,0,Wunderground v.1.15,2013-07-13 13:40:00,
2013-07-13 06:50:00,42.1,37.0,30.20,South,182,0.0,0.0,82,0.00,,,0.00,0,Wunderground v.1.15,2013-07-13 13:50:00,
2013-07-13 07:00:00,43.7,37.6,30.21,South,182,0.0,0.0,79,0.00,,,0.00,0,Wunderground v.1.15,2013-07-13 14:00:00,
2013-07-13 07:05:00,44.7,37.9,30.21,South,182,0.0,0.0,77,0.00,,,0.00,0,Wunderground v.1.15,2013-07-13 14:05:00,
2013-07-13 07:10:00,45.6,38.8,30.21,South,181,0.0,0.0,77,0.00,,,0.00,0,Wunderground v.1.15,2013-07-13 14:10:00,
2013-07-13 07:20:00,46.6,39.4,30.21,South,186,1.0,1.0,76,0.00,,,0.00,0,Wunderground v.1.15,2013-07-13 14:20:00,
2013-07-13 07:30:00,48.3,40.7,30.22,South,186,0.0,0.0,75,0.00,,,0.00,0,Wunderground v.1.15,2013-07-13 14:30:00,
2013-07-13 07:40:00,50.2,41.9,30.22,South,186,0.0,2.0,73,0.00,,,0.00,0,Wunderground v.1.15,2013-07-13 14:40:00,
2013-07-13 07:50:00,51.2,42.5,30.22,WSW,258,1.0,2.0,72,0.00,,,0.00,0,Wunderground v.1.15,2013-07-13 14:50:00,
2013-07-13 08:00:00,52.3,43.9,30.22,NW,325,0.0,2.0,73,0.00,,,0.00,0,Wunderground v.1.15,2013-07-13 15:00:00,
2013-07-13 08:05:00,53.1,43.9,30.22,NW,325,0.0,3.0,71,0.00,,,0.00,0,Wunderground v.1.15,2013-07-13 15:05:00,
2013-07-13 08:10:00,53.9,44.3,30.22,NNW,327,2.0,3.0,70,0.00,,,0.00,0,Wunderground v.1.15,2013-07-13 15:10:00,
2013-07-13 08:20:00,55.4,45.0,30.22,North,350,0.0,3.0,68,0.00,,,0.00,0,Wunderground v.1.15,2013-07-13 15:20:00,
2013-07-13 08:30:00,56.1,45.3,30.22,NNE,25,3.0,3.0,67,0.00,,,0.00,0,Wunderground v.1.15,2013-07-13 15:30:00,
2013-07-13 08:41:00,57.2,45.5,30.22,NNE,29,0.0,6.0,65,0.00,,,0.00,0,Wunderground v.1.15,2013-07-13 15:41:00,
2013-07-13 08:50:00,58.1,45.6,30.22,NNE,12,0.0,6.0,63,0.00,,,0.00,0,Wunderground v.1.15,2013-07-13 15:50:00,
2013-07-13 09:00:00,58.8,45.4,30.22,North,11,3.0,6.0,61,0.00,,,0.00,0,Wunderground v.1.15,2013-07-13 16:00:00,
2013-07-13 09:10:00,59.4,45.5,30.22,SE,129,5.0,6.0,60,0.00,,,0.00,0,Wunderground v.1.15,2013-07-13 16:10:00,
2013-07-13 09:20:00,60.5,45.6,30.22,SE,134,1.0,6.0,58,0.00,,,0.00,0,Wunderground v.1.15,2013-07-13 16:20:00,
2013-07-13 09:30:00,61.0,45.2,30.22,ESE,102,3.0,6.0,56,0.00,,,0.00,0,Wunderground v.1.15,2013-07-13 16:30:00,
2013-07-13 09:45:00,62.0,43.7,30.21,ENE,73,1.0,6.0,51,0.00,,,0.00,0,Wunderground v.1.15,2013-07-13 16:45:00,
2013-07-13 09:50:00,62.3,44.4,30.21,South,178,4.0,6.0,52,0.00,,,0.00,0,Wunderground v.1.15,2013-07-13 16:50:00,
2013-07-13 10:00:00,62.8,44.9,30.21,ESE,107,1.0,6.0,52,0.00,,,0.00,0,Wunderground v.1.15,2013-07-13 17:00:00,
2013-07-13 10:10:00,63.7,45.2,30.21,South,181,0.0,7.0,51,0.00,,,0.00,0,Wunderground v.1.15,2013-07-13 17:10:00,
2013-07-13 10:20:00,63.6,44.1,30.21,NE,34,4.0,7.0,49,0.00,,,0.00,0,Wunderground v.1.15,2013-07-13 17:20:00,
2013-07-13 10:30:00,63.7,43.1,30.21,NE,56,0.0,7.0,47,0.00,,,0.00,0,Wunderground v.1.15,2013-07-13 17:30:00,
2013-07-13 10:45:00,64.7,43.4,30.21,East,86,0.0,8.0,46,0.00,,,0.00,0,Wunderground v.1.15,2013-07-13 17:45:00,
2013-07-13 10:50:00,65.4,43.5,30.21,East,81,0.0,8.0,45,0.00,,,0.00,0,Wunderground v.1.15,2013-07-13 17:50:00,
2013-07-13 11:00:00,65.9,43.4,30.21,ENE,73,5.0,8.0,44,0.00,,,0.00,0,Wunderground v.1.15,2013-07-13 18:00:00,
2013-07-13 11:10:00,65.7,42.6,30.21,ENE,66,4.0,10.0,43,0.00,,,0.00,0,Wunderground v.1.15,2013-07-13 18:10:00,
2013-07-13 11:20:00,66.5,42.7,30.21,NNE,14,0.0,10.0,42,0.00,,,0.00,0,Wunderground v.1.15,2013-07-13 18:20:00,
2013-07-13 11:30:00,67.2,43.3,30.20,North,358,7.0,10.0,42,0.00,,,0.00,0,Wunderground v.1.15,2013-07-13 18:30:00,
2013-07-13 11:40:00,68.2,42.9,30.20,SSE,148,6.0,8.0,40,0.00,,,0.00,0,Wunderground v.1.15,2013-07-13 18:40:00,
2013-07-13 11:50:00,68.3,42.4,30.20,ESE,108,4.0,8.0,39,0.00,,,0.00,0,Wunderground v.1.15,2013-07-13 18:50:00,
2013-07-13 12:00:00,68.7,43.4,30.19,ENE,70,5.0,8.0,40,0.00,,,0.00,0,Wunderground v.1.15,2013-07-13 19:00:00,
2013-07-13 12:10:00,69.0,43.7,30.19,ESE,121,6.0,11.0,40,0.00,,,0.00,0,Wunderground v.1.15,2013-07-13 19:10:00,
2013-07-13 12:20:00,68.7,42.1,30.19,SSW,192,2.0,11.0,38,0.00,,,0.00,0,Wunderground v.1.15,2013-07-13 19:20:00,
2013-07-13 12:30:00,68.8,40.0,30.19,North,1,3.0,11.0,35,0.00,,,0.00,0,Wunderground v.1.15,2013-07-13 19:30:00,
2013-07-13 12:40:00,69.7,39.3,30.19,ESE,119,3.0,11.0,33,0.00,,,0.00,0,Wunderground v.1.15,2013-07-13 19:40:00,
2013-07-13 12:50:00,70.2,39.7,30.19,North,10,8.0,13.0,33,0.00,,,0.00,0,Wunderground v.1.15,2013-07-13 19:50:00,
2013-07-13 13:00:00,70.0,38.8,30.18,ENE,66,0.0,13.0,32,0.00,,,0.00,0,Wunderground v.1.15,2013-07-13 20:00:00,
2013-07-13 13:10:00,72.1,40.6,30.18,ENE,71,9.0,13.0,32,0.00,,,0.00,0,Wunderground v.1.15,2013-07-13 20:10:00,
2013-07-13 13:20:00,71.8,39.5,30.18,NNE,23,2.0,13.0,31,0.00,,,0.00,0,Wunderground v.1.15,2013-07-13 20:20:00,
2013-07-13 13:30:00,71.9,37.9,30.18,ENE,71,8.0,13.0,29,0.00,,,0.00,0,Wunderground v.1.15,2013-07-13 20:30:00,
2013-07-13 13:40:00,72.1,35.3,30.18,ESE,110,2.0,13.0,26,0.00,,,0.00,0,Wunderground v.1.15,2013-07-13 20:40:00,
2013-07-13 13:50:00,72.7,34.8,30.17,East,90,11.0,13.0,25,0.00,,,0.00,0,Wunderground v.1.15,2013-07-13 20:50:00,
2013-07-13 14:00:00,73.3,37.3,30.17,NE,43,7.0,13.0,27,0.00,,,0.00,0,Wunderground v.1.15,2013-07-13 21:00:00,
2013-07-13 14:05:00,73.4,37.4,30.17,ENE,58,5.0,14.0,27,0.00,,,0.00,0,Wunderground v.1.15,2013-07-13 21:05:00,
2013-07-13 14:10:00,73.8,37.7,30.17,East,85,4.0,14.0,27,0.00,,,0.00,0,Wunderground v.1.15,2013-07-13 21:10:00,
2013-07-13 14:20:00,74.1,36.0,30.17,ENE,67,11.0,14.0,25,0.00,,,0.00,0,Wunderground v.1.15,2013-07-13 21:20:00,
2013-07-13 14:30:00,73.6,36.6,30.17,NNE,23,5.0,14.0,26,0.00,,,0.00,0,Wunderground v.1.15,2013-07-13 21:30:00,
2013-07-13 14:40:00,74.0,35.9,30.16,North,1,2.0,16.0,25,0.00,,,0.00,0,Wunderground v.1.15,2013-07-13 21:40:00,
2013-07-13 14:50:00,74.7,36.5,30.16,NE,49,10.0,16.0,25,0.00,,,0.00,0,Wunderground v.1.15,2013-07-13 21:50:00,
2013-07-13 15:00:00,74.8,36.6,30.16,SE,138,4.0,16.0,25,0.00,,,0.00,0,Wunderground v.1.15,2013-07-13 22:00:00,
2013-07-13 15:05:00,75.1,35.8,30.16,North,1,3.0,16.0,24,0.00,,,0.00,0,Wunderground v.1.15,2013-07-13 22:05:00,
2013-07-13 15:15:00,75.1,34.8,30.15,NNE,19,4.0,13.0,23,0.00,,,0.00,0,Wunderground v.1.15,2013-07-13 22:15:00,
2013-07-13 15:20:00,75.2,35.9,30.15,NNE,14,5.0,13.0,24,0.00,,,0.00,0,Wunderground v.1.15,2013-07-13 22:20:00,
2013-07-13 15:30:00,75.8,34.2,30.15,East,98,2.0,13.0,22,0.00,,,0.00,0,Wunderground v.1.15,2013-07-13 22:30:00,
2013-07-13 15:40:00,76.2,34.6,30.15,North,10,6.0,13.0,22,0.00,,,0.00,0,Wunderground v.1.15,2013-07-13 22:40:00,
2013-07-13 15:50:00,76.1,35.6,30.15,NE,42,5.0,13.0,23,0.00,,,0.00,0,Wunderground v.1.15,2013-07-13 22:50:00,
2013-07-13 16:00:00,76.9,35.1,30.14,ENE,65,6.0,13.0,22,0.00,,,0.00,0,Wunderground v.1.15,2013-07-13 23:00:00,
2013-07-13 16:05:00,76.5,34.8,30.14,ENE,75,6.0,15.0,22,0.00,,,0.00,0,Wunderground v.1.15,2013-07-13 23:05:00,
2013-07-13 16:15:00,76.6,34.9,30.14,NE,41,7.0,15.0,22,0.00,,,0.00,0,Wunderground v.1.15,2013-07-13 23:15:00,
2013-07-13 16:20:00,76.4,34.7,30.14,North,1,2.0,15.0,22,0.00,,,0.00,0,Wunderground v.1.15,2013-07-13 23:20:00,
2013-07-13 16:30:00,77.2,34.2,30.14,ESE,108,2.0,15.0,21,0.00,,,0.00,0,Wunderground v.1.15,2013-07-13 23:30:00,
2013-07-13 16:40:00,78.0,34.9,30.14,NNE,15,6.0,14.0,21,0.00,,,0.00,0,Wunderground v.1.15,2013-07-13 23:40:00,
2013-07-13 16:50:00,76.8,32.7,30.14,NE,47,5.0,14.0,20,0.00,,,0.00,0,Wunderground v.1.15,2013-07-13 23:50:00,
2013-07-13 17:00:00,76.8,33.9,30.14,NNE,23,7.0,14.0,21,0.00,,,0.00,0,Wunderground v.1.15,2013-07-14 00:00:00,
2013-07-13 17:10:00,77.0,31.6,30.13,North,359,3.0,14.0,19,0.00,,,0.00,0,Wunderground v.1.15,2013-07-14 00:10:00,
2013-07-13 17:20:00,77.0,31.6,30.13,NNE,15,9.0,14.0,19,0.00,,,0.00,0,Wunderground v.1.15,2013-07-14 00:20:00,
2013-07-13 17:30:00,77.2,31.7,30.13,North,9,3.0,14.0,19,0.00,,,0.00,0,Wunderground v.1.15,2013-07-14 00:30:00,
2013-07-13 17:40:00,77.6,30.7,30.13,NNE,32,6.0,15.0,18,0.00,,,0.00,0,Wunderground v.1.15,2013-07-14 00:40:00,
2013-07-13 17:50:00,77.9,31.0,30.13,North,358,4.0,15.0,18,0.00,,,0.00,0,Wunderground v.1.15,2013-07-14 00:50:00,
2013-07-13 18:00:00,77.2,29.0,30.13,North,5,9.0,15.0,17,0.00,,,0.00,0,Wunderground v.1.15,2013-07-14 01:00:00,
2013-07-13 18:05:00,77.3,30.5,30.13,NE,39,6.0,15.0,18,0.00,,,0.00,0,Wunderground v.1.15,2013-07-14 01:05:00,
2013-07-13 18:15:00,77.7,29.4,30.13,North,11,6.0,14.0,17,0.00,,,0.00,0,Wunderground v.1.15,2013-07-14 01:15:00,
2013-07-13 18:20:00,77.9,26.5,30.12,NNE,28,9.0,14.0,15,0.00,,,0.00,0,Wunderground v.1.15,2013-07-14 01:20:00,
2013-07-13 18:30:00,77.1,25.9,30.13,North,3,7.0,14.0,15,0.00,,,0.00,0,Wunderground v.1.15,2013-07-14 01:30:00,
2013-07-13 18:40:00,77.1,27.4,30.12,NE,42,5.0,16.0,16,0.00,,,0.00,0,Wunderground v.1.15,2013-07-14 01:40:00,
2013-07-13 18:50:00,77.5,27.7,30.13,North,1,4.0,16.0,16,0.00,,,0.00,0,Wunderground v.1.15,2013-07-14 01:50:00,
2013-07-13 19:00:00,77.3,27.6,30.13,NNE,14,7.0,16.0,16,0.00,,,0.00,0,Wunderground v.1.15,2013-07-14 02:00:00,
2013-07-13 19:10:00,76.8,28.7,30.13,NNE,20,12.0,14.0,17,0.00,,,0.00,0,Wunderground v.1.15,2013-07-14 02:10:00,
2013-07-13 19:20:00,76.9,28.7,30.13,NNE,24,3.0,14.0,17,0.00,,,0.00,0,Wunderground v.1.15,2013-07-14 02:20:00,
2013-07-13 19:30:00,76.7,28.6,30.13,NE,34,6.0,14.0,17,0.00,,,0.00,0,Wunderground v.1.15,2013-07-14 02:30:00,
2013-07-13 19:40:00,76.3,28.3,30.13,ENE,59,6.0,15.0,17,0.00,,,0.00,0,Wunderground v.1.15,2013-07-14 02:40:00,
2013-07-13 19:50:00,76.1,26.6,30.14,NNE,22,5.0,15.0,16,0.00,,,0.00,0,Wunderground v.1.15,2013-07-14 02:50:00,
2013-07-13 20:00:00,75.9,27.9,30.14,North,349,5.0,15.0,17,0.00,,,0.00,0,Wunderground v.1.15,2013-07-14 03:00:00,
2013-07-13 20:05:00,75.7,27.8,30.14,North,359,2.0,15.0,17,0.00,,,0.00,0,Wunderground v.1.15,2013-07-14 03:05:00,
2013-07-13 20:10:00,75.4,28.9,30.14,North,359,7.0,13.0,18,0.00,,,0.00,0,Wunderground v.1.15,2013-07-14 03:10:00,
2013-07-13 20:20:00,74.8,29.8,30.14,NNE,20,6.0,13.0,19,0.00,,,0.00,0,Wunderground v.1.15,2013-07-14 03:20:00,
2013-07-13 20:30:00,74.0,31.6,30.14,NNE,17,8.0,13.0,21,0.00,,,0.00,0,Wunderground v.1.15,2013-07-14 03:30:00,
2013-07-13 20:40:00,73.2,32.1,30.14,NNE,30,5.0,13.0,22,0.00,,,0.00,0,Wunderground v.1.15,2013-07-14 03:40:00,
2013-07-13 20:50:00,72.6,32.7,30.15,North,0,2.0,13.0,23,0.00,,,0.00,0,Wunderground v.1.15,2013-07-14 03:50:00,
2013-07-13 21:00:00,71.8,33.0,30.15,North,2,2.0,13.0,24,0.00,,,0.00,0,Wunderground v.1.15,2013-07-14 04:00:00,
2013-07-13 21:05:00,71.5,32.8,30.15,North,2,0.0,13.0,24,0.00,,,0.00,0,Wunderground v.1.15,2013-07-14 04:05:00,
2013-07-13 21:10:00,71.1,33.5,30.15,North,2,2.0,9.0,25,0.00,,,0.00,0,Wunderground v.1.15,2013-07-14 04:10:00,
2013-07-13 21:20:00,70.2,34.6,30.16,North,2,0.0,9.0,27,0.00,,,0.00,0,Wunderground v.1.15,2013-07-14 04:20:00,
2013-07-13 21:24:00,69.0,33.6,30.16,North,0,2.0,9.0,27,0.00,,,0.00,0,Wunderground v.1.15,2013-07-14 04:24:00,
2013-07-13 21:30:00,67.8,34.4,30.16,NW,318,2.0,9.0,29,0.00,,,0.00,0,Wunderground v.1.15,2013-07-14 04:30:00,
2013-07-13 21:34:00,66.7,34.3,30.17,NW,318,3.0,9.0,30,0.00,,,0.00,0,Wunderground v.1.15,2013-07-14 04:34:00,
2013-07-13 21:40:00,65.3,33.0,30.17,NW,318,2.0,5.0,30,0.00,,,0.00,0,Wunderground v.1.15,2013-07-14 04:40:00,
2013-07-13 21:50:00,63.6,33.2,30.17,NW,318,3.0,5.0,32,0.00,,,0.00,0,Wunderground v.1.15,2013-07-14 04:50:00,
2013-07-13 22:00:00,62.2,32.7,30.18,NW,317,3.0,5.0,33,0.00,,,0.00,0,Wunderground v.1.15,2013-07-14 05:00:00,
2013-07-13 22:10:00,60.8,32.2,30.18,NW,316,3.0,4.0,34,0.00,,,0.00,0,Wunderground v.1.15,2013-07-14 05:10:00,
2013-07-13 22:20:00,59.9,32.9,30.18,West,277,1.0,4.0,36,0.00,,,0.00,0,Wunderground v.1.15,2013-07-14 05:20:00,
2013-07-13 22:30:00,58.7,32.5,30.18,West,277,1.0,4.0,37,0.00,,,0.00,0,Wunderground v.1.15,2013-07-14 05:30:00,
2013-07-13 22:40:00,57.9,33.1,30.18,West,277,0.0,4.0,39,0.00,,,0.00,0,Wunderground v.1.15,2013-07-14 05:40:00,
2013-07-13 22:50:00,58.3,34.7,30.19,West,275,2.0,4.0,41,0.00,,,0.00,0,Wunderground v.1.15,2013-07-14 05:50:00,
2013-07-13 23:00:00,57.9,34.3,30.19,West,271,2.0,4.0,41,0.00,,,0.00,0,Wunderground v.1.15,2013-07-14 06:00:00,
2013-07-13 23:05:00,57.3,34.4,30.18,West,265,3.0,5.0,42,0.00,,,0.00,0,Wunderground v.1.15,2013-07-14 06:05:00,
2013-07-13 23:10:00,56.5,34.3,30.19,West,259,3.0,5.0,43,0.00,,,0.00,0,Wunderground v.1.15,2013-07-14 06:10:00,
2013-07-13 23:20:00,55.5,34.5,30.19,WSW,245,3.0,5.0,45,0.00,,,0.00,0,Wunderground v.1.15,2013-07-14 06:20:00,
2013-07-13 23:30:00,55.1,34.1,30.19,WSW,241,2.0,5.0,45,0.00,,,0.00,0,Wunderground v.1.15,2013-07-14 06:30:00,
2013-07-13 23:40:00,54.2,34.4,30.19,WSW,241,2.0,5.0,47,0.00,,,0.00,0,Wunderground v.1.15,2013-07-14 06:40:00,
2013-07-13 23:50:00,53.2,34.0,30.20,WSW,241,0.0,5.0,48,0.00,,,0.00,0,Wunderground v.1.15,2013-07-14 06:50:00,